sensor_id;sensor_type;location;lat;lon;timestamp;P1;durP1;ratioP1;P2;durP2;ratioP2
13269;SDS011;6703;51.994;7.570;2023-06-26T00:00:06;7.28;;;4.22;;
13269;SDS011;6703;51.994;7.570;2023-06-26T00:02:35;9.93;;;4.53;;
13269;SDS011;6703;51.994;7.570;2023-06-26T00:05:03;8.05;;;4.97;;
13269;SDS011;6703;51.994;7.570;2023-06-26T00:07:31;9.33;;;4.90;;
13269;SDS011;6703;51.994;7.570;2023-06-26T00:10:00;10.40;;;5.32;;
13269;SDS011;6703;51.994;7.570;2023-06-26T00:12:30;8.13;;;4.97;;
13269;SDS011;6703;51.994;7.570;2023-06-26T00:14:58;13.68;;;4.47;;
13269;SDS011;6703;51.994;7.570;2023-06-26T00:17:26;9.65;;;4.80;;
13269;SDS011;6703;51.994;7.570;2023-06-26T00:19:53;11.50;;;4.97;;
13269;SDS011;6703;51.994;7.570;2023-06-26T00:22:21;7.38;;;4.82;;
13269;SDS011;6703;51.994;7.570;2023-06-26T00:24:49;11.00;;;5.18;;
13269;SDS011;6703;51.994;7.570;2023-06-26T00:27:16;9.90;;;5.35;;
13269;SDS011;6703;51.994;7.570;2023-06-26T00:29:45;8.60;;;5.03;;
13269;SDS011;6703;51.994;7.570;2023-06-26T00:32:13;9.98;;;4.85;;
13269;SDS011;6703;51.994;7.570;2023-06-26T00:34:41;12.27;;;5.13;;
13269;SDS011;6703;51.994;7.570;2023-06-26T00:37:08;10.80;;;5.22;;
13269;SDS011;6703;51.994;7.570;2023-06-26T00:39:36;11.63;;;5.17;;
13269;SDS011;6703;51.994;7.570;2023-06-26T00:42:04;15.40;;;5.88;;
13269;SDS011;6703;51.994;7.570;2023-06-26T00:44:34;10.70;;;5.68;;
13269;SDS011;6703;51.994;7.570;2023-06-26T00:47:03;9.95;;;5.13;;
13269;SDS011;6703;51.994;7.570;2023-06-26T00:49:31;12.15;;;5.45;;
13269;SDS011;6703;51.994;7.570;2023-06-26T00:51:59;11.23;;;5.27;;
13269;SDS011;6703;51.994;7.570;2023-06-26T00:54:29;14.43;;;5.40;;
13269;SDS011;6703;51.994;7.570;2023-06-26T00:56:58;11.75;;;5.13;;
13269;SDS011;6703;51.994;7.570;2023-06-26T00:59:25;10.15;;;5.63;;
13269;SDS011;6703;51.994;7.570;2023-06-26T01:01:53;15.27;;;6.38;;
13269;SDS011;6703;51.994;7.570;2023-06-26T01:04:22;12.93;;;5.10;;
13269;SDS011;6703;51.994;7.570;2023-06-26T01:06:53;10.23;;;5.90;;
13269;SDS011;6703;51.994;7.570;2023-06-26T01:09:22;13.20;;;5.65;;
13269;SDS011;6703;51.994;7.570;2023-06-26T01:11:50;14.15;;;6.43;;
13269;SDS011;6703;51.994;7.570;2023-06-26T01:14:17;14.73;;;6.18;;
13269;SDS011;6703;51.994;7.570;2023-06-26T01:16:45;12.93;;;6.35;;
13269;SDS011;6703;51.994;7.570;2023-06-26T01:19:16;10.57;;;6.35;;
13269;SDS011;6703;51.994;7.570;2023-06-26T01:21:54;12.63;;;6.72;;
13269;SDS011;6703;51.994;7.570;2023-06-26T01:26:59;11.73;;;6.38;;
13269;SDS011;6703;51.994;7.570;2023-06-26T01:29:29;14.17;;;6.03;;
13269;SDS011;6703;51.994;7.570;2023-06-26T01:31:59;14.07;;;5.90;;
13269;SDS011;6703;51.994;7.570;2023-06-26T01:34:27;15.15;;;5.57;;
13269;SDS011;6703;51.994;7.570;2023-06-26T01:36:55;14.05;;;5.80;;
13269;SDS011;6703;51.994;7.570;2023-06-26T01:39:24;10.05;;;6.00;;
13269;SDS011;6703;51.994;7.570;2023-06-26T01:41:51;14.43;;;5.30;;
13269;SDS011;6703;51.994;7.570;2023-06-26T01:44:25;12.85;;;6.20;;
13269;SDS011;6703;51.994;7.570;2023-06-26T01:46:57;10.93;;;5.90;;
13269;SDS011;6703;51.994;7.570;2023-06-26T01:49:31;11.38;;;5.80;;
13269;SDS011;6703;51.994;7.570;2023-06-26T01:52:06;12.43;;;5.38;;
13269;SDS011;6703;51.994;7.570;2023-06-26T01:54:37;12.98;;;5.80;;
13269;SDS011;6703;51.994;7.570;2023-06-26T01:57:06;12.90;;;5.67;;
13269;SDS011;6703;51.994;7.570;2023-06-26T01:59:37;13.75;;;6.30;;
13269;SDS011;6703;51.994;7.570;2023-06-26T02:02:06;12.27;;;5.43;;
13269;SDS011;6703;51.994;7.570;2023-06-26T02:04:34;9.88;;;5.70;;
13269;SDS011;6703;51.994;7.570;2023-06-26T02:07:03;11.85;;;6.38;;
13269;SDS011;6703;51.994;7.570;2023-06-26T02:09:31;14.00;;;5.80;;
13269;SDS011;6703;51.994;7.570;2023-06-26T02:11:59;12.57;;;5.88;;
13269;SDS011;6703;51.994;7.570;2023-06-26T02:14:27;14.32;;;6.15;;
13269;SDS011;6703;51.994;7.570;2023-06-26T02:16:56;15.45;;;6.07;;
13269;SDS011;6703;51.994;7.570;2023-06-26T02:19:24;12.38;;;5.57;;
13269;SDS011;6703;51.994;7.570;2023-06-26T02:21:53;20.98;;;6.90;;
13269;SDS011;6703;51.994;7.570;2023-06-26T02:24:21;14.43;;;5.70;;
13269;SDS011;6703;51.994;7.570;2023-06-26T02:26:49;11.35;;;5.95;;
13269;SDS011;6703;51.994;7.570;2023-06-26T02:29:38;10.83;;;6.20;;
13269;SDS011;6703;51.994;7.570;2023-06-26T02:32:08;15.75;;;6.20;;
13269;SDS011;6703;51.994;7.570;2023-06-26T02:34:36;13.02;;;6.60;;
13269;SDS011;6703;51.994;7.570;2023-06-26T02:37:04;13.00;;;5.97;;
13269;SDS011;6703;51.994;7.570;2023-06-26T02:39:34;13.00;;;6.00;;
13269;SDS011;6703;51.994;7.570;2023-06-26T02:42:01;12.00;;;6.22;;
13269;SDS011;6703;51.994;7.570;2023-06-26T02:44:29;12.33;;;5.90;;
13269;SDS011;6703;51.994;7.570;2023-06-26T02:46:57;11.15;;;5.78;;
13269;SDS011;6703;51.994;7.570;2023-06-26T02:49:26;15.70;;;5.80;;
13269;SDS011;6703;51.994;7.570;2023-06-26T02:51:54;13.85;;;6.07;;
13269;SDS011;6703;51.994;7.570;2023-06-26T02:54:22;14.10;;;6.28;;
13269;SDS011;6703;51.994;7.570;2023-06-26T02:56:50;9.25;;;5.93;;
13269;SDS011;6703;51.994;7.570;2023-06-26T02:59:18;10.93;;;5.70;;
13269;SDS011;6703;51.994;7.570;2023-06-26T03:01:46;11.32;;;6.07;;
13269;SDS011;6703;51.994;7.570;2023-06-26T03:04:14;13.98;;;6.65;;
13269;SDS011;6703;51.994;7.570;2023-06-26T03:06:45;11.27;;;5.67;;
13269;SDS011;6703;51.994;7.570;2023-06-26T03:09:15;13.07;;;6.05;;
13269;SDS011;6703;51.994;7.570;2023-06-26T03:11:44;12.90;;;6.18;;
13269;SDS011;6703;51.994;7.570;2023-06-26T03:14:12;13.05;;;6.30;;
13269;SDS011;6703;51.994;7.570;2023-06-26T03:16:41;12.40;;;6.13;;
13269;SDS011;6703;51.994;7.570;2023-06-26T03:19:08;12.37;;;5.70;;
13269;SDS011;6703;51.994;7.570;2023-06-26T03:21:36;14.27;;;5.80;;
13269;SDS011;6703;51.994;7.570;2023-06-26T03:24:07;10.40;;;5.78;;
13269;SDS011;6703;51.994;7.570;2023-06-26T03:26:34;15.80;;;6.00;;
13269;SDS011;6703;51.994;7.570;2023-06-26T03:29:02;11.05;;;5.28;;
13269;SDS011;6703;51.994;7.570;2023-06-26T03:31:30;11.83;;;5.70;;
13269;SDS011;6703;51.994;7.570;2023-06-26T03:33:58;12.82;;;5.75;;
13269;SDS011;6703;51.994;7.570;2023-06-26T03:36:26;12.23;;;5.32;;
13269;SDS011;6703;51.994;7.570;2023-06-26T03:38:53;12.18;;;6.05;;
13269;SDS011;6703;51.994;7.570;2023-06-26T03:41:24;12.02;;;6.15;;
13269;SDS011;6703;51.994;7.570;2023-06-26T03:43:52;10.00;;;5.70;;
13269;SDS011;6703;51.994;7.570;2023-06-26T03:46:21;12.13;;;5.00;;
13269;SDS011;6703;51.994;7.570;2023-06-26T03:48:49;13.48;;;5.72;;
13269;SDS011;6703;51.994;7.570;2023-06-26T03:51:16;12.33;;;5.60;;
13269;SDS011;6703;51.994;7.570;2023-06-26T03:53:44;11.25;;;5.40;;
13269;SDS011;6703;51.994;7.570;2023-06-26T03:56:12;11.70;;;5.50;;
13269;SDS011;6703;51.994;7.570;2023-06-26T03:58:41;11.63;;;5.90;;
13269;SDS011;6703;51.994;7.570;2023-06-26T04:01:09;13.18;;;6.03;;
13269;SDS011;6703;51.994;7.570;2023-06-26T04:03:37;10.17;;;5.57;;
13269;SDS011;6703;51.994;7.570;2023-06-26T04:06:05;9.85;;;5.43;;
13269;SDS011;6703;51.994;7.570;2023-06-26T04:08:33;13.23;;;5.65;;
13269;SDS011;6703;51.994;7.570;2023-06-26T04:11:01;11.30;;;5.70;;
13269;SDS011;6703;51.994;7.570;2023-06-26T04:13:29;15.35;;;5.55;;
13269;SDS011;6703;51.994;7.570;2023-06-26T04:15:58;12.70;;;5.78;;
13269;SDS011;6703;51.994;7.570;2023-06-26T04:18:26;14.05;;;6.05;;
13269;SDS011;6703;51.994;7.570;2023-06-26T04:21:04;13.47;;;6.23;;
13269;SDS011;6703;51.994;7.570;2023-06-26T04:23:33;13.07;;;6.30;;
13269;SDS011;6703;51.994;7.570;2023-06-26T04:26:02;14.20;;;6.00;;
13269;SDS011;6703;51.994;7.570;2023-06-26T04:28:31;10.55;;;5.85;;
13269;SDS011;6703;51.994;7.570;2023-06-26T04:31:00;15.35;;;6.97;;
13269;SDS011;6703;51.994;7.570;2023-06-26T04:33:29;13.18;;;6.50;;
13269;SDS011;6703;51.994;7.570;2023-06-26T04:35:58;13.15;;;6.35;;
13269;SDS011;6703;51.994;7.570;2023-06-26T04:38:29;16.33;;;7.07;;
13269;SDS011;6703;51.994;7.570;2023-06-26T04:40:57;16.13;;;6.38;;
13269;SDS011;6703;51.994;7.570;2023-06-26T04:43:25;11.68;;;6.60;;
13269;SDS011;6703;51.994;7.570;2023-06-26T04:48:29;15.63;;;6.50;;
13269;SDS011;6703;51.994;7.570;2023-06-26T04:50:57;13.10;;;6.70;;
13269;SDS011;6703;51.994;7.570;2023-06-26T04:53:25;12.43;;;6.57;;
13269;SDS011;6703;51.994;7.570;2023-06-26T04:55:53;11.20;;;6.22;;
13269;SDS011;6703;51.994;7.570;2023-06-26T04:58:21;14.20;;;6.80;;
13269;SDS011;6703;51.994;7.570;2023-06-26T05:00:48;18.75;;;7.03;;
13269;SDS011;6703;51.994;7.570;2023-06-26T05:03:17;16.85;;;6.43;;
13269;SDS011;6703;51.994;7.570;2023-06-26T05:05:46;15.05;;;7.20;;
13269;SDS011;6703;51.994;7.570;2023-06-26T05:08:15;13.23;;;6.35;;
13269;SDS011;6703;51.994;7.570;2023-06-26T05:10:43;13.40;;;7.28;;
13269;SDS011;6703;51.994;7.570;2023-06-26T05:13:12;16.30;;;6.95;;
13269;SDS011;6703;51.994;7.570;2023-06-26T05:15:41;12.48;;;6.85;;
13269;SDS011;6703;51.994;7.570;2023-06-26T05:18:09;12.90;;;6.90;;
13269;SDS011;6703;51.994;7.570;2023-06-26T05:20:37;16.67;;;6.55;;
13269;SDS011;6703;51.994;7.570;2023-06-26T05:23:07;11.63;;;6.60;;
13269;SDS011;6703;51.994;7.570;2023-06-26T05:25:35;13.85;;;6.97;;
13269;SDS011;6703;51.994;7.570;2023-06-26T05:28:04;16.27;;;6.68;;
13269;SDS011;6703;51.994;7.570;2023-06-26T05:30:35;14.05;;;6.40;;
13269;SDS011;6703;51.994;7.570;2023-06-26T05:33:03;19.43;;;6.67;;
13269;SDS011;6703;51.994;7.570;2023-06-26T05:35:32;12.80;;;6.65;;
13269;SDS011;6703;51.994;7.570;2023-06-26T05:38:00;14.85;;;6.25;;
13269;SDS011;6703;51.994;7.570;2023-06-26T05:40:30;11.30;;;6.30;;
13269;SDS011;6703;51.994;7.570;2023-06-26T05:43:00;12.13;;;6.60;;
13269;SDS011;6703;51.994;7.570;2023-06-26T05:45:28;11.35;;;6.22;;
13269;SDS011;6703;51.994;7.570;2023-06-26T05:47:56;16.35;;;6.47;;
13269;SDS011;6703;51.994;7.570;2023-06-26T05:50:25;9.82;;;5.55;;
13269;SDS011;6703;51.994;7.570;2023-06-26T05:52:53;12.50;;;6.22;;
13269;SDS011;6703;51.994;7.570;2023-06-26T05:55:22;16.88;;;5.93;;
13269;SDS011;6703;51.994;7.570;2023-06-26T05:57:52;12.70;;;6.70;;
13269;SDS011;6703;51.994;7.570;2023-06-26T06:00:20;17.63;;;6.47;;
13269;SDS011;6703;51.994;7.570;2023-06-26T06:02:48;11.27;;;6.25;;
13269;SDS011;6703;51.994;7.570;2023-06-26T06:05:21;11.80;;;5.67;;
13269;SDS011;6703;51.994;7.570;2023-06-26T06:07:49;13.85;;;5.90;;
13269;SDS011;6703;51.994;7.570;2023-06-26T06:10:17;11.07;;;5.45;;
13269;SDS011;6703;51.994;7.570;2023-06-26T06:12:44;11.23;;;5.45;;
13269;SDS011;6703;51.994;7.570;2023-06-26T06:15:13;11.60;;;5.27;;
13269;SDS011;6703;51.994;7.570;2023-06-26T06:17:41;12.98;;;4.57;;
13269;SDS011;6703;51.994;7.570;2023-06-26T06:20:09;12.13;;;5.22;;
13269;SDS011;6703;51.994;7.570;2023-06-26T06:22:38;12.40;;;5.18;;
13269;SDS011;6703;51.994;7.570;2023-06-26T06:25:06;11.63;;;4.93;;
13269;SDS011;6703;51.994;7.570;2023-06-26T06:27:34;10.50;;;4.63;;
13269;SDS011;6703;51.994;7.570;2023-06-26T06:30:02;51.60;;;6.65;;
13269;SDS011;6703;51.994;7.570;2023-06-26T06:32:34;9.52;;;4.22;;
13269;SDS011;6703;51.994;7.570;2023-06-26T06:35:02;9.32;;;4.40;;
13269;SDS011;6703;51.994;7.570;2023-06-26T06:37:36;9.35;;;4.38;;
13269;SDS011;6703;51.994;7.570;2023-06-26T06:40:05;10.80;;;4.30;;
13269;SDS011;6703;51.994;7.570;2023-06-26T06:42:34;12.30;;;4.30;;
13269;SDS011;6703;51.994;7.570;2023-06-26T06:45:24;13.70;;;3.80;;
13269;SDS011;6703;51.994;7.570;2023-06-26T06:47:53;13.18;;;4.22;;
13269;SDS011;6703;51.994;7.570;2023-06-26T06:50:21;9.15;;;3.28;;
13269;SDS011;6703;51.994;7.570;2023-06-26T06:52:49;8.63;;;3.70;;
13269;SDS011;6703;51.994;7.570;2023-06-26T06:55:17;10.95;;;3.72;;
13269;SDS011;6703;51.994;7.570;2023-06-26T06:57:45;9.32;;;3.35;;
13269;SDS011;6703;51.994;7.570;2023-06-26T07:00:13;15.50;;;4.32;;
13269;SDS011;6703;51.994;7.570;2023-06-26T07:02:42;20.20;;;3.83;;
13269;SDS011;6703;51.994;7.570;2023-06-26T07:05:12;13.73;;;3.33;;
13269;SDS011;6703;51.994;7.570;2023-06-26T07:07:40;9.32;;;3.78;;
13269;SDS011;6703;51.994;7.570;2023-06-26T07:10:09;9.80;;;3.72;;
13269;SDS011;6703;51.994;7.570;2023-06-26T07:12:38;8.07;;;3.55;;
13269;SDS011;6703;51.994;7.570;2023-06-26T07:15:06;12.07;;;4.05;;
13269;SDS011;6703;51.994;7.570;2023-06-26T07:17:34;9.55;;;2.97;;
13269;SDS011;6703;51.994;7.570;2023-06-26T07:20:04;14.90;;;4.60;;
13269;SDS011;6703;51.994;7.570;2023-06-26T07:22:36;10.82;;;3.78;;
13269;SDS011;6703;51.994;7.570;2023-06-26T07:25:04;9.95;;;3.47;;
13269;SDS011;6703;51.994;7.570;2023-06-26T07:27:36;10.93;;;3.33;;
13269;SDS011;6703;51.994;7.570;2023-06-26T07:30:04;12.13;;;4.15;;
13269;SDS011;6703;51.994;7.570;2023-06-26T07:32:32;14.60;;;4.18;;
13269;SDS011;6703;51.994;7.570;2023-06-26T07:35:00;8.82;;;3.38;;
13269;SDS011;6703;51.994;7.570;2023-06-26T07:37:28;10.55;;;3.58;;
13269;SDS011;6703;51.994;7.570;2023-06-26T07:39:57;11.20;;;4.18;;
13269;SDS011;6703;51.994;7.570;2023-06-26T07:42:25;13.57;;;3.50;;
13269;SDS011;6703;51.994;7.570;2023-06-26T07:44:53;13.38;;;4.00;;
13269;SDS011;6703;51.994;7.570;2023-06-26T07:47:21;8.38;;;3.13;;
13269;SDS011;6703;51.994;7.570;2023-06-26T07:49:49;38.10;;;4.50;;
13269;SDS011;6703;51.994;7.570;2023-06-26T07:52:17;11.67;;;4.10;;
13269;SDS011;6703;51.994;7.570;2023-06-26T07:54:46;12.68;;;3.65;;
13269;SDS011;6703;51.994;7.570;2023-06-26T07:57:15;8.82;;;3.83;;
13269;SDS011;6703;51.994;7.570;2023-06-26T07:59:43;13.20;;;3.75;;
13269;SDS011;6703;51.994;7.570;2023-06-26T08:02:11;11.10;;;3.30;;
13269;SDS011;6703;51.994;7.570;2023-06-26T08:04:39;11.73;;;3.47;;
13269;SDS011;6703;51.994;7.570;2023-06-26T08:07:07;7.72;;;3.38;;
13269;SDS011;6703;51.994;7.570;2023-06-26T08:09:34;28.33;;;4.90;;
13269;SDS011;6703;51.994;7.570;2023-06-26T08:12:03;7.93;;;3.08;;
13269;SDS011;6703;51.994;7.570;2023-06-26T08:14:33;14.32;;;4.30;;
13269;SDS011;6703;51.994;7.570;2023-06-26T08:17:01;10.45;;;3.40;;
13269;SDS011;6703;51.994;7.570;2023-06-26T08:19:29;16.77;;;3.60;;
13269;SDS011;6703;51.994;7.570;2023-06-26T08:21:57;9.27;;;3.33;;
13269;SDS011;6703;51.994;7.570;2023-06-26T08:24:25;11.25;;;3.65;;
13269;SDS011;6703;51.994;7.570;2023-06-26T08:26:52;11.48;;;3.92;;
13269;SDS011;6703;51.994;7.570;2023-06-26T08:29:21;10.32;;;3.72;;
13269;SDS011;6703;51.994;7.570;2023-06-26T08:31:50;10.10;;;3.80;;
13269;SDS011;6703;51.994;7.570;2023-06-26T08:34:17;12.15;;;3.60;;
13269;SDS011;6703;51.994;7.570;2023-06-26T08:36:45;8.63;;;3.42;;
13269;SDS011;6703;51.994;7.570;2023-06-26T08:39:13;9.30;;;3.38;;
13269;SDS011;6703;51.994;7.570;2023-06-26T08:41:41;12.88;;;4.15;;
13269;SDS011;6703;51.994;7.570;2023-06-26T08:44:09;12.15;;;4.00;;
13269;SDS011;6703;51.994;7.570;2023-06-26T08:46:37;11.05;;;3.15;;
13269;SDS011;6703;51.994;7.570;2023-06-26T08:49:08;8.63;;;3.10;;
13269;SDS011;6703;51.994;7.570;2023-06-26T08:51:42;10.05;;;3.40;;
13269;SDS011;6703;51.994;7.570;2023-06-26T08:54:13;10.35;;;2.95;;
13269;SDS011;6703;51.994;7.570;2023-06-26T08:56:44;6.07;;;2.90;;
13269;SDS011;6703;51.994;7.570;2023-06-26T08:59:13;9.48;;;3.17;;
13269;SDS011;6703;51.994;7.570;2023-06-26T09:01:42;13.90;;;3.30;;
13269;SDS011;6703;51.994;7.570;2023-06-26T09:04:11;9.57;;;3.47;;
13269;SDS011;6703;51.994;7.570;2023-06-26T09:06:40;11.07;;;2.90;;
13269;SDS011;6703;51.994;7.570;2023-06-26T09:09:08;9.30;;;3.28;;
13269;SDS011;6703;51.994;7.570;2023-06-26T09:11:36;12.60;;;3.47;;
13269;SDS011;6703;51.994;7.570;2023-06-26T09:14:04;8.80;;;2.97;;
13269;SDS011;6703;51.994;7.570;2023-06-26T09:16:42;5.72;;;2.92;;
13269;SDS011;6703;51.994;7.570;2023-06-26T09:19:12;9.50;;;3.53;;
13269;SDS011;6703;51.994;7.570;2023-06-26T09:21:40;9.52;;;3.33;;
13269;SDS011;6703;51.994;7.570;2023-06-26T09:24:09;10.88;;;3.15;;
13269;SDS011;6703;51.994;7.570;2023-06-26T09:26:37;7.82;;;3.05;;
13269;SDS011;6703;51.994;7.570;2023-06-26T09:29:06;13.83;;;2.90;;
13269;SDS011;6703;51.994;7.570;2023-06-26T09:31:35;11.13;;;3.20;;
13269;SDS011;6703;51.994;7.570;2023-06-26T09:34:07;39.00;;;3.53;;
13269;SDS011;6703;51.994;7.570;2023-06-26T09:36:37;7.00;;;2.70;;
13269;SDS011;6703;51.994;7.570;2023-06-26T09:39:07;8.20;;;2.95;;
13269;SDS011;6703;51.994;7.570;2023-06-26T09:41:40;9.55;;;3.03;;
13269;SDS011;6703;51.994;7.570;2023-06-26T09:44:10;7.13;;;2.87;;
13269;SDS011;6703;51.994;7.570;2023-06-26T09:46:38;9.67;;;3.10;;
13269;SDS011;6703;51.994;7.570;2023-06-26T09:49:06;10.07;;;2.95;;
13269;SDS011;6703;51.994;7.570;2023-06-26T09:51:35;10.93;;;3.10;;
13269;SDS011;6703;51.994;7.570;2023-06-26T09:54:05;14.57;;;2.80;;
13269;SDS011;6703;51.994;7.570;2023-06-26T09:56:33;8.77;;;2.80;;
13269;SDS011;6703;51.994;7.570;2023-06-26T09:59:02;24.42;;;3.42;;
13269;SDS011;6703;51.994;7.570;2023-06-26T10:01:31;7.43;;;2.75;;
13269;SDS011;6703;51.994;7.570;2023-06-26T10:04:00;8.40;;;2.40;;
13269;SDS011;6703;51.994;7.570;2023-06-26T10:06:33;7.60;;;1.98;;
13269;SDS011;6703;51.994;7.570;2023-06-26T10:09:03;5.72;;;2.55;;
13269;SDS011;6703;51.994;7.570;2023-06-26T10:11:32;5.13;;;2.20;;
13269;SDS011;6703;51.994;7.570;2023-06-26T10:16:49;6.25;;;1.98;;
13269;SDS011;6703;51.994;7.570;2023-06-26T10:19:22;7.90;;;2.15;;
13269;SDS011;6703;51.994;7.570;2023-06-26T10:21:52;4.70;;;1.75;;
13269;SDS011;6703;51.994;7.570;2023-06-26T10:24:22;6.57;;;1.77;;
13269;SDS011;6703;51.994;7.570;2023-06-26T10:26:52;4.97;;;1.52;;
13269;SDS011;6703;51.994;7.570;2023-06-26T10:29:23;3.95;;;1.50;;
13269;SDS011;6703;51.994;7.570;2023-06-26T10:31:51;12.13;;;2.33;;
13269;SDS011;6703;51.994;7.570;2023-06-26T10:34:21;4.20;;;1.30;;
13269;SDS011;6703;51.994;7.570;2023-06-26T10:36:55;3.27;;;1.30;;
13269;SDS011;6703;51.994;7.570;2023-06-26T10:39:27;4.50;;;1.75;;
13269;SDS011;6703;51.994;7.570;2023-06-26T10:42:13;12.23;;;2.00;;
13269;SDS011;6703;51.994;7.570;2023-06-26T10:44:41;6.07;;;1.80;;
13269;SDS011;6703;51.994;7.570;2023-06-26T10:47:10;5.55;;;1.45;;
13269;SDS011;6703;51.994;7.570;2023-06-26T10:49:37;4.60;;;1.38;;
13269;SDS011;6703;51.994;7.570;2023-06-26T10:52:06;4.20;;;1.48;;
13269;SDS011;6703;51.994;7.570;2023-06-26T10:54:36;4.95;;;1.52;;
13269;SDS011;6703;51.994;7.570;2023-06-26T10:57:05;4.75;;;1.45;;
13269;SDS011;6703;51.994;7.570;2023-06-26T10:59:38;12.07;;;1.67;;
13269;SDS011;6703;51.994;7.570;2023-06-26T11:02:06;6.90;;;2.30;;
13269;SDS011;6703;51.994;7.570;2023-06-26T11:04:37;5.63;;;1.55;;
13269;SDS011;6703;51.994;7.570;2023-06-26T11:07:16;9.73;;;1.90;;
13269;SDS011;6703;51.994;7.570;2023-06-26T11:09:56;9.50;;;2.10;;
13269;SDS011;6703;51.994;7.570;2023-06-26T11:12:35;7.18;;;1.63;;
13269;SDS011;6703;51.994;7.570;2023-06-26T11:15:07;5.80;;;1.92;;
13269;SDS011;6703;51.994;7.570;2023-06-26T11:17:36;5.80;;;2.00;;
13269;SDS011;6703;51.994;7.570;2023-06-26T11:20:05;5.85;;;1.67;;
13269;SDS011;6703;51.994;7.570;2023-06-26T11:22:34;9.30;;;2.78;;
13269;SDS011;6703;51.994;7.570;2023-06-26T11:25:05;3.77;;;1.53;;
13269;SDS011;6703;51.994;7.570;2023-06-26T11:27:37;4.88;;;1.95;;
13269;SDS011;6703;51.994;7.570;2023-06-26T11:30:06;9.18;;;1.67;;
13269;SDS011;6703;51.994;7.570;2023-06-26T11:32:36;6.72;;;1.83;;
13269;SDS011;6703;51.994;7.570;2023-06-26T11:35:05;4.70;;;1.33;;
13269;SDS011;6703;51.994;7.570;2023-06-26T11:37:33;5.72;;;1.67;;
13269;SDS011;6703;51.994;7.570;2023-06-26T11:43:01;3.00;;;1.43;;
13269;SDS011;6703;51.994;7.570;2023-06-26T11:45:30;23.95;;;2.25;;
13269;SDS011;6703;51.994;7.570;2023-06-26T11:47:59;4.63;;;1.35;;
13269;SDS011;6703;51.994;7.570;2023-06-26T11:50:27;6.70;;;1.77;;
13269;SDS011;6703;51.994;7.570;2023-06-26T11:52:55;2.83;;;1.55;;
13269;SDS011;6703;51.994;7.570;2023-06-26T11:55:26;9.00;;;1.95;;
13269;SDS011;6703;51.994;7.570;2023-06-26T11:57:54;5.20;;;1.90;;
13269;SDS011;6703;51.994;7.570;2023-06-26T12:00:23;3.25;;;0.93;;
13269;SDS011;6703;51.994;7.570;2023-06-26T12:02:50;3.20;;;1.45;;
13269;SDS011;6703;51.994;7.570;2023-06-26T12:05:18;4.20;;;2.08;;
13269;SDS011;6703;51.994;7.570;2023-06-26T12:07:47;4.38;;;1.23;;
13269;SDS011;6703;51.994;7.570;2023-06-26T12:10:15;3.23;;;1.30;;
13269;SDS011;6703;51.994;7.570;2023-06-26T12:12:45;3.47;;;1.37;;
13269;SDS011;6703;51.994;7.570;2023-06-26T12:15:14;7.80;;;1.90;;
13269;SDS011;6703;51.994;7.570;2023-06-26T12:17:43;4.72;;;1.63;;
13269;SDS011;6703;51.994;7.570;2023-06-26T12:20:17;7.13;;;1.30;;
13269;SDS011;6703;51.994;7.570;2023-06-26T12:22:46;5.97;;;1.20;;
13269;SDS011;6703;51.994;7.570;2023-06-26T12:25:15;7.13;;;1.25;;
13269;SDS011;6703;51.994;7.570;2023-06-26T12:27:50;7.32;;;1.13;;
13269;SDS011;6703;51.994;7.570;2023-06-26T12:30:18;3.70;;;1.00;;
13269;SDS011;6703;51.994;7.570;2023-06-26T12:32:46;5.73;;;1.40;;
13269;SDS011;6703;51.994;7.570;2023-06-26T12:35:14;2.17;;;0.98;;
13269;SDS011;6703;51.994;7.570;2023-06-26T12:37:43;15.75;;;1.88;;
13269;SDS011;6703;51.994;7.570;2023-06-26T12:40:16;2.60;;;1.15;;
13269;SDS011;6703;51.994;7.570;2023-06-26T12:42:44;7.00;;;1.30;;
13269;SDS011;6703;51.994;7.570;2023-06-26T12:45:14;2.15;;;0.80;;
13269;SDS011;6703;51.994;7.570;2023-06-26T12:47:46;4.70;;;0.70;;
13269;SDS011;6703;51.994;7.570;2023-06-26T12:50:14;5.38;;;0.95;;
13269;SDS011;6703;51.994;7.570;2023-06-26T12:53:05;15.65;;;1.73;;
13269;SDS011;6703;51.994;7.570;2023-06-26T12:55:33;2.10;;;0.60;;
13269;SDS011;6703;51.994;7.570;2023-06-26T12:58:01;2.67;;;0.90;;
13269;SDS011;6703;51.994;7.570;2023-06-26T13:00:30;11.73;;;1.33;;
13269;SDS011;6703;51.994;7.570;2023-06-26T13:03:00;7.43;;;0.85;;
13269;SDS011;6703;51.994;7.570;2023-06-26T13:05:28;5.97;;;0.85;;
13269;SDS011;6703;51.994;7.570;2023-06-26T13:07:55;6.68;;;0.85;;
13269;SDS011;6703;51.994;7.570;2023-06-26T13:10:24;4.30;;;0.90;;
13269;SDS011;6703;51.994;7.570;2023-06-26T13:12:55;5.50;;;0.95;;
13269;SDS011;6703;51.994;7.570;2023-06-26T13:15:24;1.55;;;1.17;;
13269;SDS011;6703;51.994;7.570;2023-06-26T13:17:55;2.92;;;0.65;;
13269;SDS011;6703;51.994;7.570;2023-06-26T13:20:25;8.43;;;1.10;;
13269;SDS011;6703;51.994;7.570;2023-06-26T13:22:53;7.70;;;1.02;;
13269;SDS011;6703;51.994;7.570;2023-06-26T13:25:21;6.20;;;1.15;;
13269;SDS011;6703;51.994;7.570;2023-06-26T13:27:49;5.05;;;0.85;;
13269;SDS011;6703;51.994;7.570;2023-06-26T13:30:17;3.10;;;1.27;;
13269;SDS011;6703;51.994;7.570;2023-06-26T13:32:45;1.77;;;0.93;;
13269;SDS011;6703;51.994;7.570;2023-06-26T13:35:15;2.15;;;1.10;;
13269;SDS011;6703;51.994;7.570;2023-06-26T13:37:43;10.40;;;1.50;;
13269;SDS011;6703;51.994;7.570;2023-06-26T13:40:13;8.52;;;1.20;;
13269;SDS011;6703;51.994;7.570;2023-06-26T13:42:41;4.70;;;0.88;;
13269;SDS011;6703;51.994;7.570;2023-06-26T13:45:10;10.05;;;1.27;;
13269;SDS011;6703;51.994;7.570;2023-06-26T13:47:55;6.57;;;1.10;;
13269;SDS011;6703;51.994;7.570;2023-06-26T13:50:25;3.38;;;0.85;;
13269;SDS011;6703;51.994;7.570;2023-06-26T13:53:13;3.05;;;1.05;;
13269;SDS011;6703;51.994;7.570;2023-06-26T13:55:41;3.10;;;0.70;;
13269;SDS011;6703;51.994;7.570;2023-06-26T13:58:09;5.25;;;1.50;;
13269;SDS011;6703;51.994;7.570;2023-06-26T14:00:37;3.03;;;0.90;;
13269;SDS011;6703;51.994;7.570;2023-06-26T14:03:06;3.25;;;0.90;;
13269;SDS011;6703;51.994;7.570;2023-06-26T14:05:36;2.13;;;0.60;;
13269;SDS011;6703;51.994;7.570;2023-06-26T14:08:10;3.55;;;0.80;;
13269;SDS011;6703;51.994;7.570;2023-06-26T14:10:43;7.22;;;0.93;;
13269;SDS011;6703;51.994;7.570;2023-06-26T14:13:10;7.30;;;1.00;;
13269;SDS011;6703;51.994;7.570;2023-06-26T14:15:41;3.33;;;0.52;;
13269;SDS011;6703;51.994;7.570;2023-06-26T14:18:09;5.35;;;0.95;;
13269;SDS011;6703;51.994;7.570;2023-06-26T14:20:38;1.70;;;0.90;;
13269;SDS011;6703;51.994;7.570;2023-06-26T14:23:07;3.45;;;0.70;;
13269;SDS011;6703;51.994;7.570;2023-06-26T14:25:35;4.80;;;1.13;;
13269;SDS011;6703;51.994;7.570;2023-06-26T14:28:03;1.90;;;0.70;;
13269;SDS011;6703;51.994;7.570;2023-06-26T14:30:31;5.05;;;1.10;;
13269;SDS011;6703;51.994;7.570;2023-06-26T14:32:58;24.17;;;1.90;;
13269;SDS011;6703;51.994;7.570;2023-06-26T14:35:26;1.27;;;0.45;;
13269;SDS011;6703;51.994;7.570;2023-06-26T14:37:56;2.00;;;0.57;;
13269;SDS011;6703;51.994;7.570;2023-06-26T14:40:26;1.55;;;0.70;;
13269;SDS011;6703;51.994;7.570;2023-06-26T14:42:54;1.67;;;0.55;;
13269;SDS011;6703;51.994;7.570;2023-06-26T14:45:23;8.85;;;1.38;;
13269;SDS011;6703;51.994;7.570;2023-06-26T14:47:52;4.40;;;0.80;;
13269;SDS011;6703;51.994;7.570;2023-06-26T14:50:20;3.72;;;0.65;;
13269;SDS011;6703;51.994;7.570;2023-06-26T14:52:48;5.82;;;0.60;;
13269;SDS011;6703;51.994;7.570;2023-06-26T14:55:18;10.40;;;1.30;;
13269;SDS011;6703;51.994;7.570;2023-06-26T14:57:46;6.10;;;0.68;;
13269;SDS011;6703;51.994;7.570;2023-06-26T15:00:15;3.20;;;0.60;;
13269;SDS011;6703;51.994;7.570;2023-06-26T15:02:44;1.20;;;0.68;;
13269;SDS011;6703;51.994;7.570;2023-06-26T15:05:12;2.78;;;0.70;;
13269;SDS011;6703;51.994;7.570;2023-06-26T15:07:39;4.80;;;0.70;;
13269;SDS011;6703;51.994;7.570;2023-06-26T15:10:07;7.38;;;0.82;;
13269;SDS011;6703;51.994;7.570;2023-06-26T15:12:38;5.40;;;0.70;;
13269;SDS011;6703;51.994;7.570;2023-06-26T15:15:06;24.13;;;2.20;;